createdAt,value
2017-11-14T03:23:33.516Z,1.42
2017-11-14T03:24:28.929Z,1.42
2017-11-14T03:25:29.141Z,1.41
2017-11-14T03:26:28.230Z,1.40
2017-11-14T03:27:28.275Z,1.38
2017-11-14T03:28:28.349Z,1.35
2017-11-14T03:29:28.712Z,1.37
2017-11-14T03:30:28.537Z,1.35
2017-11-14T03:31:28.068Z,1.37
2017-11-14T03:32:28.412Z,1.37
2017-11-14T03:33:28.293Z,1.37
2017-11-14T03:34:28.740Z,1.41
2017-11-14T03:35:28.869Z,1.40
2017-11-14T03:36:29.190Z,1.40
2017-11-14T03:37:28.148Z,1.37
2017-11-14T03:38:28.086Z,1.38
2017-11-14T03:39:29.017Z,1.40
2017-11-14T03:40:29.235Z,1.42
2017-11-14T03:41:28.046Z,1.45
2017-11-14T03:42:27.988Z,1.49
2017-11-14T03:43:27.768Z,1.53
2017-11-14T03:44:29.311Z,1.55
2017-11-14T03:45:28.570Z,1.58
2017-11-14T03:46:28.875Z,1.62
2017-11-14T03:47:28.997Z,1.68
2017-11-14T03:48:27.801Z,1.73
2017-11-14T03:49:29.369Z,1.74
2017-11-14T03:50:29.057Z,1.74
2017-11-14T03:51:29.156Z,1.74
2017-11-14T03:52:28.747Z,1.76
2017-11-14T03:53:29.060Z,1.73
2017-11-14T03:54:28.246Z,1.68
2017-11-14T03:55:28.589Z,1.67
2017-11-14T03:56:28.944Z,1.62
2017-11-14T03:57:29.120Z,1.60
2017-11-14T03:58:28.921Z,1.56
2017-11-14T03:59:29.137Z,1.56
2017-11-14T04:00:28.770Z,1.58
2017-11-14T04:01:29.359Z,1.52
2017-11-14T04:02:28.403Z,1.50
2017-11-14T04:03:28.545Z,1.50
2017-11-14T04:04:28.277Z,1.50
2017-11-14T04:05:28.123Z,1.55
2017-11-14T04:06:28.441Z,1.56
2017-11-14T04:07:28.945Z,1.53
2017-11-14T04:08:28.116Z,1.55
2017-11-14T04:09:27.855Z,1.58
2017-11-14T04:10:28.995Z,1.59
2017-11-14T04:11:28.774Z,1.66
2017-11-14T04:12:28.712Z,1.66
2017-11-14T04:13:27.921Z,1.67
2017-11-14T04:14:28.681Z,1.68
2017-11-14T04:15:28.481Z,1.66
2017-11-14T04:16:28.828Z,1.63
2017-11-14T04:17:28.258Z,1.67
2017-11-14T04:18:29.292Z,1.71
2017-11-14T04:19:28.154Z,1.73
2017-11-14T04:20:28.361Z,1.77
2017-11-14T04:21:28.043Z,1.76
2017-11-14T04:22:27.971Z,1.77
2017-11-14T04:23:29.133Z,1.76
2017-11-14T04:24:27.740Z,1.77
2017-11-14T04:25:28.334Z,1.84
2017-11-14T04:26:28.159Z,1.89
2017-11-14T04:27:27.872Z,1.91
2017-11-14T04:28:29.181Z,1.94
2017-11-14T04:29:28.218Z,1.91
2017-11-14T04:30:28.359Z,1.95
2017-11-14T04:31:28.081Z,1.95
2017-11-14T04:32:28.250Z,2.00
2017-11-14T04:33:29.146Z,2.07
2017-11-14T04:34:28.392Z,2.11
2017-11-14T04:35:28.216Z,2.14
2017-11-14T04:36:27.853Z,2.17
2017-11-14T04:37:29.139Z,2.20
2017-11-14T04:38:28.394Z,2.24
2017-11-14T04:39:29.045Z,2.24
2017-11-14T04:40:28.745Z,2.25
2017-11-14T04:41:29.088Z,2.25
2017-11-14T04:42:28.142Z,2.25
2017-11-14T04:43:28.613Z,2.26
2017-11-14T04:44:28.486Z,2.26
2017-11-14T04:45:28.487Z,2.26
2017-11-14T04:46:28.673Z,2.25
2017-11-14T04:47:28.843Z,2.25
2017-11-14T04:48:28.156Z,2.28
2017-11-14T04:49:28.384Z,2.28
2017-11-14T04:50:29.021Z,2.31
2017-11-14T04:51:28.701Z,2.36
2017-11-14T04:52:29.166Z,2.36
2017-11-14T04:53:27.936Z,2.38
2017-11-14T04:54:28.848Z,2.38
2017-11-14T04:55:29.329Z,2.38
2017-11-14T04:56:28.688Z,2.35
2017-11-14T04:57:28.853Z,2.33
2017-11-14T04:58:29.056Z,2.33
2017-11-14T04:59:28.014Z,2.32
2017-11-14T05:00:29.476Z,2.29
2017-11-14T05:01:28.204Z,2.29
2017-11-14T05:02:28.223Z,2.28
2017-11-14T05:03:28.093Z,2.25
2017-11-14T05:04:28.241Z,2.24
2017-11-14T05:05:28.051Z,2.24
2017-11-14T05:06:28.264Z,2.22
2017-11-14T05:07:27.951Z,2.20
2017-11-14T05:08:29.200Z,2.17
2017-11-14T05:09:28.171Z,2.14
2017-11-14T05:10:28.381Z,2.10
2017-11-14T05:11:28.957Z,2.10
2017-11-14T05:12:29.041Z,2.07
2017-11-14T05:13:28.772Z,2.06
2017-11-14T05:14:28.490Z,2.07
2017-11-14T05:15:28.525Z,2.07
2017-11-14T05:16:29.055Z,2.08
2017-11-14T05:17:33.589Z,2.07
2017-11-14T05:18:29.257Z,2.06
2017-11-14T05:19:28.701Z,2.06
2017-11-14T05:20:29.006Z,2.00
2017-11-14T05:21:28.018Z,2.00
2017-11-14T05:22:33.208Z,1.95
2017-11-14T05:23:28.208Z,1.94
2017-11-14T05:24:28.632Z,1.94
2017-11-14T05:25:28.708Z,1.94
2017-11-14T05:26:27.996Z,1.94
2017-11-14T05:27:38.053Z,1.91
2017-11-14T05:28:28.264Z,1.91
2017-11-14T05:29:28.286Z,1.91
2017-11-14T05:30:28.139Z,1.88
2017-11-14T05:31:28.450Z,1.88
2017-11-14T05:32:28.361Z,1.84
2017-11-14T05:33:28.682Z,1.84
2017-11-14T05:34:28.657Z,1.84
2017-11-14T05:35:28.868Z,1.84
2017-11-14T05:36:28.297Z,1.81
2017-11-14T05:37:28.247Z,1.85
2017-11-14T05:38:28.384Z,1.81
2017-11-14T05:39:28.511Z,1.78
2017-11-14T05:40:28.194Z,1.81
2017-11-14T05:41:27.901Z,1.81
2017-11-14T05:42:29.092Z,1.85
2017-11-14T05:43:28.250Z,1.81
2017-11-14T05:44:27.937Z,1.81
2017-11-14T05:45:27.816Z,1.80
2017-11-14T05:46:28.700Z,1.80
2017-11-14T05:47:29.069Z,1.87
2017-11-14T05:48:28.595Z,1.88
2017-11-14T05:49:28.086Z,1.89
2017-11-14T05:50:28.336Z,1.92
2017-11-14T05:51:28.077Z,1.94
2017-11-14T05:52:28.197Z,2.04
2017-11-14T05:53:28.341Z,2.08
2017-11-14T05:54:28.503Z,2.10
2017-11-14T05:55:28.258Z,2.14
2017-11-14T05:56:28.664Z,2.17
2017-11-14T05:57:28.271Z,2.17
2017-11-14T05:58:28.796Z,2.18
2017-11-14T05:59:29.514Z,2.20
2017-11-14T06:00:28.378Z,2.22
2017-11-14T06:01:28.091Z,2.25
2017-11-14T06:02:28.317Z,2.29
2017-11-14T06:03:28.748Z,2.32
2017-11-14T06:04:28.900Z,2.33
2017-11-14T06:05:29.103Z,2.33
2017-11-14T06:06:28.233Z,2.35
2017-11-14T06:07:28.147Z,2.35
2017-11-14T06:08:28.381Z,2.38
2017-11-14T06:09:28.552Z,2.36
2017-11-14T06:10:28.257Z,2.38
2017-11-14T06:11:27.955Z,2.38
2017-11-14T06:12:28.687Z,2.38
2017-11-14T06:13:29.192Z,2.39
2017-11-14T06:14:28.423Z,2.39
2017-11-14T06:15:28.636Z,2.39
2017-11-14T06:16:28.330Z,2.42
2017-11-14T06:17:28.574Z,2.43
2017-11-14T06:18:28.143Z,2.46
2017-11-14T06:19:28.620Z,2.47
2017-11-14T06:20:28.394Z,2.49
2017-11-14T06:21:28.276Z,2.50
2017-11-14T06:22:28.008Z,2.50
2017-11-14T06:23:28.376Z,2.51
2017-11-14T06:24:28.946Z,2.54
2017-11-14T06:25:28.705Z,2.54
2017-11-14T06:26:28.769Z,2.56
2017-11-14T06:27:28.917Z,2.57
2017-11-14T06:28:29.103Z,2.57
2017-11-14T06:29:28.213Z,2.57
2017-11-14T06:30:28.733Z,2.60
2017-11-14T06:31:28.952Z,2.61
2017-11-14T06:32:28.940Z,2.61
2017-11-14T06:33:28.660Z,2.64
2017-11-14T06:34:28.931Z,2.64
2017-11-14T06:35:29.650Z,2.65
2017-11-14T06:36:28.917Z,2.65
2017-11-14T06:37:30.208Z,2.67
2017-11-14T06:38:28.066Z,2.67
2017-11-14T06:39:28.478Z,2.68
2017-11-14T06:40:28.453Z,2.71
2017-11-14T06:41:29.607Z,2.69
2017-11-14T06:42:28.595Z,2.72
2017-11-14T06:43:28.829Z,2.75
2017-11-14T06:44:29.352Z,2.75
2017-11-14T06:45:28.847Z,2.75
2017-11-14T06:46:29.059Z,2.75
2017-11-14T06:47:28.061Z,2.77
2017-11-14T06:48:28.603Z,2.77
2017-11-14T06:49:29.048Z,2.77
2017-11-14T06:50:28.418Z,2.79
2017-11-14T06:51:28.413Z,2.80
2017-11-14T06:52:28.862Z,2.83
2017-11-14T06:53:28.690Z,2.82
2017-11-14T06:54:28.614Z,2.83
2017-11-14T06:55:28.959Z,2.82
2017-11-14T06:56:29.301Z,2.83
2017-11-14T06:57:28.645Z,2.83
2017-11-14T06:58:29.906Z,2.86
2017-11-14T06:59:28.537Z,2.86
2017-11-14T07:00:29.258Z,2.87
2017-11-14T07:01:28.402Z,2.89
2017-11-14T07:02:28.691Z,2.90
2017-11-14T07:03:29.068Z,2.90
2017-11-14T07:04:28.601Z,2.92
2017-11-14T07:05:28.472Z,2.95
2017-11-14T07:06:28.363Z,2.95
2017-11-14T07:07:28.754Z,2.95
2017-11-14T07:08:28.179Z,2.97
2017-11-14T07:09:28.593Z,2.98
2017-11-14T07:10:29.020Z,3.01
2017-11-14T07:11:28.764Z,3.04
2017-11-14T07:12:29.263Z,3.05
2017-11-14T07:13:28.416Z,3.10
2017-11-14T07:14:28.887Z,3.13
2017-11-14T07:15:28.018Z,3.14
2017-11-14T07:16:28.157Z,3.19
2017-11-14T07:17:28.164Z,3.21
2017-11-14T07:18:28.202Z,3.22
2017-11-14T07:19:28.482Z,3.23
2017-11-14T07:20:28.562Z,3.22
2017-11-14T07:21:29.354Z,3.25
2017-11-14T07:22:28.514Z,3.25
2017-11-14T07:23:28.738Z,3.28
2017-11-14T07:24:27.960Z,3.26
2017-11-14T07:25:28.818Z,3.29
2017-11-14T07:26:28.074Z,3.28
2017-11-14T07:27:28.135Z,3.31
2017-11-14T07:28:29.410Z,3.34
2017-11-14T07:29:28.441Z,3.32
2017-11-14T07:30:29.292Z,3.40
2017-11-14T07:31:29.418Z,3.41
2017-11-14T07:32:29.688Z,3.42
2017-11-14T07:33:29.346Z,3.47
2017-11-14T07:34:29.001Z,3.51
2017-11-14T07:35:28.884Z,3.56
2017-11-14T07:36:29.615Z,3.60
2017-11-14T07:37:28.637Z,3.66
2017-11-14T07:38:28.173Z,3.73
2017-11-14T07:39:28.523Z,3.76
2017-11-14T07:40:28.383Z,3.78
2017-11-14T07:41:28.706Z,3.81
2017-11-14T07:42:29.263Z,3.83
2017-11-14T07:43:28.218Z,3.81
2017-11-14T07:44:28.203Z,3.81
2017-11-14T07:45:28.303Z,3.83
2017-11-14T07:46:28.525Z,3.81
2017-11-14T07:47:28.761Z,3.80
2017-11-14T07:48:29.477Z,3.81
2017-11-14T07:49:28.831Z,3.83
2017-11-14T07:50:28.636Z,3.83
2017-11-14T07:51:28.682Z,3.84
2017-11-14T07:52:28.519Z,3.86
2017-11-14T07:53:28.612Z,3.91
2017-11-14T07:54:29.032Z,3.95
2017-11-14T07:55:28.931Z,3.96
2017-11-14T07:56:28.927Z,3.96
2017-11-14T07:57:28.040Z,3.96
2017-11-14T07:58:28.104Z,3.98
2017-11-14T07:59:28.793Z,3.99
2017-11-14T08:00:29.832Z,4.01
2017-11-14T08:01:28.740Z,4.02
2017-11-14T08:02:28.719Z,4.04
2017-11-14T08:03:29.029Z,4.05
2017-11-14T08:04:27.956Z,4.05
2017-11-14T08:05:28.628Z,4.06
2017-11-14T08:06:28.933Z,4.08
2017-11-14T08:07:28.309Z,4.10
2017-11-14T08:08:28.252Z,4.12
2017-11-14T08:09:28.436Z,4.16
2017-11-14T08:10:28.714Z,4.19
2017-11-14T08:11:29.666Z,4.20
2017-11-14T08:12:29.116Z,4.24
2017-11-14T08:13:29.168Z,4.28
2017-11-14T08:14:28.231Z,4.30
2017-11-14T08:15:28.345Z,4.32
2017-11-14T08:16:28.456Z,4.35
2017-11-14T08:17:28.519Z,4.38
2017-11-14T08:18:29.578Z,4.41
2017-11-14T08:19:29.081Z,4.45
2017-11-14T08:20:28.062Z,4.48
2017-11-14T08:21:28.461Z,4.52
2017-11-14T08:22:28.525Z,4.53
2017-11-14T08:23:28.794Z,4.56
2017-11-14T08:24:29.602Z,4.59
2017-11-14T08:25:28.717Z,4.62
2017-11-14T08:26:28.845Z,4.67
2017-11-14T08:27:28.999Z,4.70
2017-11-14T08:28:28.466Z,4.73
2017-11-14T08:29:28.525Z,4.74
2017-11-14T08:30:28.998Z,4.80
2017-11-14T08:31:28.387Z,4.86
2017-11-14T08:32:28.750Z,4.90
2017-11-14T08:33:28.972Z,4.94
2017-11-14T08:34:27.968Z,5.00
2017-11-14T08:35:29.056Z,5.02
2017-11-14T08:36:28.624Z,5.00
2017-11-14T08:37:29.352Z,4.97
2017-11-14T08:38:28.799Z,4.93
2017-11-14T08:39:28.970Z,4.92
2017-11-14T08:40:28.493Z,4.89
2017-11-14T08:41:29.519Z,4.86
2017-11-14T08:42:28.485Z,4.86
2017-11-14T08:43:28.675Z,4.84
2017-11-14T08:44:29.291Z,4.78
2017-11-14T08:45:28.706Z,4.78
2017-11-14T08:46:29.083Z,4.75
2017-11-14T08:47:28.892Z,4.74
2017-11-14T08:48:29.501Z,4.73
2017-11-14T08:49:29.089Z,4.73
2017-11-14T08:50:28.133Z,4.71
2017-11-14T08:51:28.416Z,4.71
2017-11-14T08:52:28.983Z,4.68
2017-11-14T08:53:29.293Z,4.68
2017-11-14T08:54:28.171Z,4.67
2017-11-14T08:55:28.210Z,4.68
2017-11-14T08:56:28.151Z,4.68
2017-11-14T08:57:28.567Z,4.71
2017-11-14T08:58:28.736Z,4.74
2017-11-14T08:59:28.783Z,4.78
2017-11-14T09:00:28.824Z,4.84
2017-11-14T09:01:28.618Z,4.93
2017-11-14T09:02:29.057Z,5.02
2017-11-14T09:03:28.674Z,5.12
2017-11-14T09:04:28.488Z,5.20
2017-11-14T09:05:29.124Z,5.29
2017-11-14T09:06:29.047Z,5.32
2017-11-14T09:07:28.344Z,5.33
2017-11-14T09:08:30.117Z,5.33
2017-11-14T09:09:29.613Z,5.38
2017-11-14T09:10:29.211Z,5.39
2017-11-14T09:11:28.173Z,5.43
2017-11-14T09:12:28.207Z,5.50
2017-11-14T09:13:28.407Z,5.61
2017-11-14T09:14:28.817Z,5.75
2017-11-14T09:15:29.061Z,5.91
2017-11-14T09:16:28.625Z,6.05
2017-11-14T09:17:28.652Z,6.12
2017-11-14T09:18:29.062Z,6.28
2017-11-14T09:19:28.724Z,6.33
2017-11-14T09:20:29.552Z,6.36
2017-11-14T09:21:29.164Z,6.33
2017-11-14T09:22:28.813Z,6.33
2017-11-14T09:23:29.111Z,6.31
2017-11-14T09:24:28.977Z,6.28
2017-11-14T09:25:29.158Z,6.27
2017-11-14T09:26:28.582Z,6.20
2017-11-14T09:27:28.860Z,6.22
2017-11-14T09:28:29.189Z,6.28
2017-11-14T09:29:28.607Z,6.30
2017-11-14T09:30:29.206Z,6.35
2017-11-14T09:31:28.969Z,6.35
2017-11-14T09:32:27.972Z,6.38
2017-11-14T09:33:28.929Z,6.38
2017-11-14T09:34:29.391Z,6.39
2017-11-14T09:35:29.405Z,6.41
2017-11-14T09:36:29.281Z,6.51
2017-11-14T09:37:28.869Z,6.60
2017-11-14T09:38:29.094Z,6.63
2017-11-14T09:39:29.554Z,6.70
2017-11-14T09:40:29.252Z,6.75
2017-11-14T09:41:29.214Z,6.79
2017-11-14T09:42:28.632Z,6.88
2017-11-14T09:43:28.426Z,6.95
2017-11-14T09:44:28.493Z,7.06
2017-11-14T09:45:28.526Z,7.13
2017-11-14T09:46:28.859Z,7.21
2017-11-14T09:47:28.732Z,7.25
2017-11-14T09:48:29.242Z,7.29
2017-11-14T09:49:28.167Z,7.18
2017-11-14T09:50:29.413Z,7.17
2017-11-14T09:51:29.071Z,7.10
2017-11-14T09:52:28.163Z,7.05
2017-11-14T09:53:28.724Z,7.13
2017-11-14T09:54:29.406Z,7.18
2017-11-14T09:55:28.558Z,7.23
2017-11-14T09:56:28.513Z,7.31
2017-11-14T09:57:29.409Z,7.42
2017-11-14T09:58:28.865Z,7.51
2017-11-14T09:59:29.349Z,7.57
2017-11-14T10:00:28.367Z,7.58
2017-11-14T10:01:28.908Z,7.53
2017-11-14T10:02:29.768Z,7.45
2017-11-14T10:03:28.695Z,7.33
2017-11-14T10:04:29.069Z,7.14
2017-11-14T10:05:28.966Z,7.13
2017-11-14T10:06:29.459Z,7.13
2017-11-14T10:07:28.523Z,7.13
2017-11-14T10:08:29.694Z,7.14
2017-11-14T10:09:29.039Z,7.10
2017-11-14T10:10:28.922Z,7.10
2017-11-14T10:11:29.441Z,7.10
2017-11-14T10:12:28.462Z,7.07
2017-11-14T10:13:28.306Z,7.03
2017-11-14T10:14:29.686Z,6.97
2017-11-14T10:15:28.650Z,7.03
2017-11-14T10:16:29.136Z,7.15
2017-11-14T10:17:28.405Z,7.28
2017-11-14T10:18:28.403Z,7.43
2017-11-14T10:19:29.063Z,7.56
2017-11-14T10:20:28.516Z,7.75
2017-11-14T10:21:28.276Z,7.85
2017-11-14T10:22:28.531Z,7.80
2017-11-14T10:23:28.582Z,7.83
2017-11-14T10:24:28.943Z,7.95
2017-11-14T10:25:30.188Z,7.93
2017-11-14T10:26:28.866Z,7.90
2017-11-14T10:27:28.742Z,7.90
2017-11-14T10:28:28.525Z,7.69
2017-11-14T10:29:28.558Z,7.61
2017-11-14T10:30:29.325Z,7.69
2017-11-14T10:31:29.574Z,7.82
2017-11-14T10:32:29.760Z,8.03
2017-11-14T10:33:29.233Z,8.10
2017-11-14T10:34:28.236Z,8.23
2017-11-14T10:35:28.229Z,8.28
2017-11-14T10:36:28.707Z,8.44
2017-11-14T10:37:30.324Z,8.48
2017-11-14T10:38:28.920Z,8.60
2017-11-14T10:39:29.548Z,8.51
2017-11-14T10:40:29.327Z,8.38
2017-11-14T10:41:28.330Z,8.49
2017-11-14T10:42:28.440Z,8.58
2017-11-14T10:43:28.905Z,8.74
2017-11-14T10:44:29.449Z,8.71
2017-11-14T10:45:28.867Z,8.56
2017-11-14T10:46:29.316Z,8.46
2017-11-14T10:47:28.859Z,8.53
2017-11-14T10:48:28.726Z,8.56
2017-11-14T10:49:29.887Z,8.69
2017-11-14T10:50:28.760Z,8.69
2017-11-14T10:51:29.756Z,8.61
2017-11-14T10:52:28.796Z,8.61
2017-11-14T10:53:28.752Z,8.67
2017-11-14T10:54:28.705Z,8.82
2017-11-14T10:55:29.207Z,8.79
2017-11-14T10:56:29.042Z,8.97
2017-11-14T10:57:28.960Z,8.99
2017-11-14T10:58:29.238Z,8.94
2017-11-14T10:59:28.675Z,8.82
2017-11-14T11:00:29.235Z,8.78
2017-11-14T11:01:28.600Z,8.95
2017-11-14T11:02:28.930Z,9.14
2017-11-14T11:03:29.053Z,9.51
2017-11-14T11:04:29.375Z,10.69
2017-11-14T11:05:28.844Z,10.75
2017-11-14T11:06:29.988Z,10.56
2017-11-14T11:07:31.335Z,10.38
2017-11-14T11:08:29.255Z,10.19
2017-11-14T11:09:28.564Z,9.89
2017-11-14T11:10:28.934Z,9.77
2017-11-14T11:11:29.273Z,9.82
2017-11-14T11:12:29.427Z,9.83
2017-11-14T11:13:28.773Z,10.01
2017-11-14T11:14:30.326Z,9.99
2017-11-14T11:15:28.768Z,9.94
2017-11-14T11:16:29.354Z,9.91
2017-11-14T11:17:28.785Z,9.79
2017-11-14T11:18:29.052Z,9.74
2017-11-14T11:19:28.033Z,9.76
2017-11-14T11:20:29.563Z,9.69
2017-11-14T11:21:28.883Z,9.69
2017-11-14T11:22:29.695Z,9.72
2017-11-14T11:23:28.915Z,9.46
2017-11-14T11:24:28.406Z,9.34
2017-11-14T11:25:29.399Z,9.44
2017-11-14T11:26:28.933Z,9.34
2017-11-14T11:27:29.311Z,9.25
2017-11-14T11:28:28.247Z,9.28
2017-11-14T11:29:28.852Z,9.40
2017-11-14T11:30:28.809Z,9.26
2017-11-14T11:31:28.754Z,9.10
2017-11-14T11:32:29.289Z,9.08
2017-11-14T11:33:29.093Z,8.95
2017-11-14T11:34:29.314Z,8.94
2017-11-14T11:35:28.733Z,8.81
2017-11-14T11:36:29.048Z,8.73
2017-11-14T11:37:28.509Z,8.73
2017-11-14T11:38:29.365Z,8.56
2017-11-14T11:39:28.860Z,8.53
2017-11-14T11:40:29.279Z,8.49
2017-11-14T11:41:29.183Z,8.45
2017-11-14T11:42:28.103Z,8.42
2017-11-14T11:43:29.307Z,8.45
2017-11-14T11:44:28.524Z,8.53
2017-11-14T11:45:29.163Z,8.61
2017-11-14T11:46:28.288Z,8.63
2017-11-14T11:47:28.277Z,8.56
2017-11-14T11:48:28.789Z,8.58
2017-11-14T11:49:29.577Z,8.51
2017-11-14T11:50:28.813Z,8.49
2017-11-14T11:51:28.680Z,8.46
2017-11-14T11:52:28.536Z,8.41
2017-11-14T11:53:29.167Z,8.45
2017-11-14T11:54:29.255Z,8.52
2017-11-14T11:55:28.920Z,8.66
2017-11-14T11:56:28.949Z,8.61
2017-11-14T11:57:28.995Z,8.66
2017-11-14T11:58:29.302Z,8.69
2017-11-14T11:59:28.173Z,8.85
2017-11-14T12:00:29.115Z,8.91
2017-11-14T12:01:29.554Z,9.00
2017-11-14T12:02:29.088Z,8.97
2017-11-14T12:03:28.618Z,9.18
2017-11-14T12:04:28.398Z,9.39
2017-11-14T12:05:28.527Z,9.56
2017-11-14T12:06:28.368Z,9.76
2017-11-14T12:07:28.342Z,9.74
2017-11-14T12:08:28.583Z,9.82
2017-11-14T12:09:29.137Z,9.69
2017-11-14T12:10:28.456Z,9.55
2017-11-14T12:11:28.793Z,9.32
2017-11-14T12:12:28.640Z,9.46
2017-11-14T12:13:28.954Z,9.47
2017-11-14T12:14:28.812Z,9.50
2017-11-14T12:15:29.805Z,9.51
2017-11-14T12:16:28.794Z,9.43
2017-11-14T12:17:29.384Z,9.37
2017-11-14T12:18:28.664Z,9.37
2017-11-14T12:19:28.386Z,9.40
2017-11-14T12:20:28.887Z,9.29
2017-11-14T12:21:32.857Z,9.16
2017-11-14T12:22:30.840Z,9.10
2017-11-14T12:23:28.441Z,9.02
2017-11-14T12:24:28.710Z,8.97
2017-11-14T12:25:29.120Z,8.97
2017-11-14T12:26:29.394Z,8.94
2017-11-14T12:27:29.572Z,8.94
2017-11-14T12:28:28.441Z,8.87
2017-11-14T12:29:28.686Z,8.73
2017-11-14T12:30:28.551Z,8.56
2017-11-14T12:31:28.422Z,8.52
2017-11-14T12:32:29.023Z,8.53
2017-11-14T12:33:30.752Z,8.55
2017-11-14T12:34:28.747Z,8.51
2017-11-14T12:35:28.991Z,8.48
2017-11-14T12:36:29.334Z,8.48
2017-11-14T12:37:29.443Z,8.51
2017-11-14T12:38:28.912Z,8.46
2017-11-14T12:39:29.352Z,8.48
2017-11-14T12:40:28.773Z,8.53
2017-11-14T12:41:28.470Z,8.52
2017-11-14T12:42:28.993Z,8.52
2017-11-14T12:43:29.447Z,8.53
2017-11-14T12:44:28.697Z,8.56
2017-11-14T12:45:28.806Z,8.55
2017-11-14T12:46:29.396Z,8.55
2017-11-14T12:47:29.256Z,8.44
2017-11-14T12:48:29.101Z,8.41
2017-11-14T12:49:28.550Z,8.36
2017-11-14T12:50:29.282Z,8.31
2017-11-14T12:51:28.600Z,8.33
2017-11-14T12:52:29.486Z,8.36
2017-11-14T12:53:28.412Z,8.34
2017-11-14T12:54:28.327Z,8.36
2017-11-14T12:55:28.714Z,8.36
2017-11-14T12:56:30.273Z,8.37
2017-11-14T12:57:28.575Z,8.36
2017-11-14T12:58:29.289Z,8.38
2017-11-14T12:59:28.132Z,8.36
2017-11-14T13:00:29.343Z,8.33
2017-11-14T13:01:28.191Z,8.33
2017-11-14T13:02:28.121Z,8.33
2017-11-14T13:03:28.419Z,8.34
2017-11-14T13:04:28.606Z,8.36
2017-11-14T13:05:28.691Z,8.34
2017-11-14T13:06:28.628Z,8.36
2017-11-14T13:07:28.451Z,8.37
2017-11-14T13:08:28.714Z,8.41
2017-11-14T13:09:29.198Z,8.37
2017-11-14T13:10:28.383Z,8.33
2017-11-14T13:11:28.932Z,8.33
2017-11-14T13:12:29.432Z,8.31
2017-11-14T13:13:29.291Z,8.26
2017-11-14T13:14:28.238Z,8.23
2017-11-14T13:15:28.683Z,8.19
2017-11-14T13:16:29.104Z,8.18
2017-11-14T13:17:27.959Z,8.13
2017-11-14T13:18:29.342Z,8.12
2017-11-14T13:19:29.817Z,8.09
2017-11-14T13:20:28.649Z,8.08
2017-11-14T13:21:28.986Z,8.06
2017-11-14T13:22:29.438Z,8.06
2017-11-14T13:23:28.864Z,8.05
2017-11-14T13:24:29.110Z,8.03
2017-11-14T13:25:29.431Z,8.05
2017-11-14T13:26:28.292Z,8.03
2017-11-14T13:27:28.302Z,8.01
2017-11-14T13:28:28.759Z,8.01
2017-11-14T13:29:29.024Z,8.01
2017-11-14T13:30:29.054Z,8.03
2017-11-14T13:31:29.480Z,8.00
2017-11-14T13:32:29.045Z,8.00
2017-11-14T13:33:29.015Z,8.01
2017-11-14T13:34:29.396Z,8.01
2017-11-14T13:35:28.603Z,8.05
2017-11-14T13:36:29.414Z,8.03
2017-11-14T13:37:29.004Z,8.05
2017-11-14T13:38:28.598Z,8.06
2017-11-14T13:39:28.513Z,8.05
2017-11-14T13:40:28.747Z,8.06
2017-11-14T13:41:28.195Z,8.06
2017-11-14T13:42:28.961Z,8.00
2017-11-14T13:43:28.641Z,8.00
2017-11-14T13:44:28.658Z,8.00
2017-11-14T13:45:28.860Z,7.98
2017-11-14T13:46:28.953Z,8.00
2017-11-14T13:47:28.597Z,7.98
2017-11-14T13:48:28.923Z,7.97
2017-11-14T13:49:28.654Z,7.97
2017-11-14T13:50:29.161Z,7.98
2017-11-14T13:51:28.892Z,7.97
2017-11-14T13:52:29.684Z,7.94
2017-11-14T13:53:28.389Z,7.93
2017-11-14T13:54:29.565Z,7.93
2017-11-14T13:55:28.820Z,7.91
2017-11-14T13:56:28.260Z,7.91
2017-11-14T13:57:28.956Z,7.91
2017-11-14T13:58:28.454Z,7.88
2017-11-14T13:59:29.728Z,7.90
2017-11-14T14:00:30.441Z,7.90
2017-11-14T14:01:28.926Z,7.90
2017-11-14T14:02:29.344Z,7.88
2017-11-14T14:03:28.445Z,7.87
2017-11-14T14:04:28.549Z,7.88
2017-11-14T14:05:28.580Z,7.87
2017-11-14T14:06:29.240Z,7.87
2017-11-14T14:07:28.860Z,7.85
2017-11-14T14:08:28.842Z,7.83
2017-11-14T14:09:29.323Z,7.82
2017-11-14T14:10:28.971Z,7.80
2017-11-14T14:11:29.062Z,7.82
2017-11-14T14:12:29.680Z,7.80
2017-11-14T14:13:28.497Z,7.80
2017-11-14T14:14:28.795Z,7.79
2017-11-14T14:15:28.693Z,7.79
2017-11-14T14:16:28.374Z,7.79
2017-11-14T14:17:29.601Z,7.77
2017-11-14T14:18:28.363Z,7.75
2017-11-14T14:19:28.488Z,7.73
2017-11-14T14:20:28.793Z,7.70
2017-11-14T14:21:28.839Z,7.69
2017-11-14T14:22:28.667Z,7.67
2017-11-14T14:23:28.843Z,7.63
2017-11-14T14:24:29.567Z,7.60
2017-11-14T14:25:28.154Z,7.61
2017-11-14T14:26:29.325Z,7.63
2017-11-14T14:27:29.931Z,7.60
2017-11-14T14:28:29.121Z,7.60
2017-11-14T14:29:30.255Z,7.57
2017-11-14T14:30:28.384Z,7.57
2017-11-14T14:31:29.518Z,7.57
2017-11-14T14:32:28.200Z,7.57
2017-11-14T14:33:29.264Z,7.57
2017-11-14T14:34:29.636Z,7.57
2017-11-14T14:35:28.779Z,7.54
2017-11-14T14:36:29.688Z,7.53
2017-11-14T14:37:28.383Z,7.53
2017-11-14T14:38:28.333Z,7.48
2017-11-14T14:39:29.508Z,7.48
2017-11-14T14:40:28.082Z,7.45
2017-11-14T14:41:29.727Z,7.45
2017-11-14T14:42:28.984Z,7.43
2017-11-14T14:43:28.656Z,7.42
2017-11-14T14:44:29.473Z,7.40
2017-11-14T14:45:29.090Z,7.39
2017-11-14T14:46:29.220Z,7.39
2017-11-14T14:47:29.361Z,7.38
2017-11-14T14:48:28.896Z,7.35
2017-11-14T14:49:28.466Z,7.29
2017-11-14T14:50:28.809Z,7.28
2017-11-14T14:51:29.017Z,7.23
2017-11-14T14:52:29.028Z,7.21
2017-11-14T14:53:29.678Z,7.20
2017-11-14T14:54:28.865Z,7.18
2017-11-14T14:55:29.081Z,7.15
2017-11-14T14:56:28.641Z,7.13
2017-11-14T14:57:28.731Z,7.10
2017-11-14T14:58:28.981Z,7.05
2017-11-14T14:59:28.437Z,7.00
2017-11-14T15:00:29.303Z,6.97
2017-11-14T15:01:29.367Z,6.92
2017-11-14T15:02:30.536Z,6.89
2017-11-14T15:03:28.376Z,6.87
2017-11-14T15:04:29.002Z,6.84
2017-11-14T15:05:28.992Z,6.82
2017-11-14T15:06:28.930Z,6.81
2017-11-14T15:07:29.051Z,6.79
2017-11-14T15:08:29.087Z,6.78
2017-11-14T15:09:28.861Z,6.77
2017-11-14T15:10:29.137Z,6.77
2017-11-14T15:11:29.776Z,6.77
2017-11-14T15:12:28.663Z,6.77
2017-11-14T15:13:28.253Z,6.77
2017-11-14T15:14:29.330Z,6.75
2017-11-14T15:15:29.046Z,6.74
2017-11-14T15:16:28.576Z,6.74
2017-11-14T15:17:28.887Z,6.74
2017-11-14T15:18:28.926Z,6.72
2017-11-14T15:19:29.973Z,6.74
2017-11-14T15:20:29.570Z,6.74
2017-11-14T15:21:28.094Z,6.72
2017-11-14T15:22:29.098Z,6.70
2017-11-14T15:23:29.447Z,6.72
2017-11-14T15:24:28.558Z,6.70
2017-11-14T15:25:29.177Z,6.70
2017-11-14T15:26:29.236Z,6.70
2017-11-14T15:27:29.150Z,6.69
2017-11-14T15:28:30.178Z,6.69
2017-11-14T15:29:29.045Z,6.67
2017-11-14T15:30:29.587Z,6.67
2017-11-14T15:31:28.452Z,6.67
2017-11-14T15:32:28.049Z,6.67
2017-11-14T15:33:29.230Z,6.67
2017-11-14T15:34:29.584Z,6.66
2017-11-14T15:35:28.596Z,6.67
2017-11-14T15:36:28.888Z,6.67
2017-11-14T15:37:28.530Z,6.67
2017-11-14T15:38:28.989Z,6.66
2017-11-14T15:39:29.478Z,6.66
2017-11-14T15:40:28.622Z,6.66
2017-11-14T15:41:28.894Z,6.66
2017-11-14T15:42:28.972Z,6.64
2017-11-14T15:43:28.696Z,6.64
2017-11-14T15:44:28.378Z,6.66
2017-11-14T15:45:29.432Z,6.63
2017-11-14T15:46:28.329Z,6.63
2017-11-14T15:47:29.336Z,6.63
2017-11-14T15:48:29.502Z,6.62
2017-11-14T15:49:29.102Z,6.62
2017-11-14T15:50:29.297Z,6.60
2017-11-14T15:51:28.957Z,6.62
2017-11-14T15:52:28.432Z,6.59
2017-11-14T15:53:28.756Z,6.60
2017-11-14T15:54:28.517Z,6.60
2017-11-14T15:55:28.698Z,6.62
2017-11-14T15:56:28.736Z,6.63
2017-11-14T15:57:28.759Z,6.62
2017-11-14T15:58:28.341Z,6.63
2017-11-14T15:59:29.003Z,6.63
2017-11-14T16:00:28.672Z,6.63
2017-11-14T16:01:29.488Z,6.63
2017-11-14T16:02:28.680Z,6.63
2017-11-14T16:03:28.808Z,6.64
2017-11-14T16:04:28.922Z,6.64
2017-11-14T16:05:31.325Z,6.63
2017-11-14T16:06:29.546Z,6.63
2017-11-14T16:07:30.165Z,6.63
2017-11-14T16:08:30.406Z,6.64
2017-11-14T16:09:28.505Z,6.64
2017-11-14T16:10:28.693Z,6.64
2017-11-14T16:11:29.102Z,6.64
2017-11-14T16:12:30.284Z,6.66
2017-11-14T16:13:30.564Z,6.66
2017-11-14T16:14:28.059Z,6.64
2017-11-14T16:15:29.179Z,6.64
2017-11-14T16:16:29.064Z,6.66
2017-11-14T16:17:28.602Z,6.66
2017-11-14T16:18:28.605Z,6.67
2017-11-14T16:19:28.839Z,6.66
2017-11-14T16:20:28.648Z,6.66
2017-11-14T16:21:28.237Z,6.64
2017-11-14T16:22:29.690Z,6.66
2017-11-14T16:23:28.429Z,6.66
2017-11-14T16:24:28.946Z,6.66
2017-11-14T16:25:29.048Z,6.64
2017-11-14T16:26:28.672Z,6.64
2017-11-14T16:27:28.823Z,6.64
2017-11-14T16:28:29.152Z,6.62
2017-11-14T16:29:29.218Z,6.63
2017-11-14T16:30:29.656Z,6.64
2017-11-14T16:31:28.301Z,6.63
2017-11-14T16:32:28.984Z,6.64
2017-11-14T16:33:29.710Z,6.63
2017-11-14T16:34:28.839Z,6.63
2017-11-14T16:35:28.934Z,6.63
2017-11-14T16:36:29.623Z,6.62
2017-11-14T16:37:29.278Z,6.62
2017-11-14T16:38:29.273Z,6.63
2017-11-14T16:39:28.873Z,6.63
2017-11-14T16:40:30.311Z,6.62
2017-11-14T16:41:29.404Z,6.63